Time;durP1;ratioP1;P1;durP2;ratioP2;P2;SDS_P1;SDS_P2;PMS_P1;PMS_P2;Temp;Humidity;BMP_temperature;BMP_pressure;BME280_temperature;BME280_humidity;BME280_pressure;Samples;Min_cycle;Max_cycle;Signal;HPM_P1;HPM_P2
2023/03/30 00:00:59;;;;;;;;;;;11.20;99.90;;;;;;5095395;28;19974;-66
2023/03/30 00:03:26;;;;;;;;;;;11.30;99.90;;;;;;5094979;28;19984;-67
2023/03/30 00:05:55;;;;;;;;;;;11.30;99.90;;;;;;5113458;28;19951;-66
2023/03/30 00:08:21;;;;;;;;;;;11.30;99.90;;;;;;5113459;28;19931;-66
2023/03/30 00:10:47;;;;;;;;;;;11.30;99.90;;;;;;5095582;28;20015;-66
2023/03/30 00:13:13;;;;;;;;;;;11.40;99.90;;;;;;5113424;28;20014;-66
2023/03/30 00:15:38;;;;;;;;;;;11.40;99.90;;;;;;5113060;28;19930;-65
2023/03/30 00:18:04;;;;;;;;;;;11.30;99.90;;;;;;5113341;28;19930;-65
2023/03/30 00:20:32;;;;;;;;;;;11.40;99.90;;;;;;5112867;28;19946;-65
2023/03/30 00:22:58;;;;;;;;;;;11.30;99.90;;;;;;5113351;28;20330;-66
2023/03/30 00:25:24;;;;;;;;;;;11.30;99.90;;;;;;5112990;28;19923;-65
2023/03/30 00:27:50;;;;;;;;;;;11.40;99.90;;;;;;5113205;28;19928;-65
2023/03/30 00:30:16;;;;;;;;;;;11.40;99.90;;;;;;5113004;28;19923;-67
2023/03/30 00:32:42;;;;;;;;;;;11.40;99.90;;;;;;5113138;28;19950;-66
2023/03/30 00:35:09;;;;;;;;;;;11.40;99.90;;;;;;5095181;28;19923;-66
2023/03/30 00:37:36;;;;;;;;;;;11.40;99.90;;;;;;5094721;28;20006;-66
2023/03/30 00:40:07;;;;;;;;;;;11.40;99.90;;;;;;5112683;28;19928;-67
2023/03/30 00:42:36;;;;;;;;;;;11.50;99.90;;;;;;5112452;28;19924;-67
2023/03/30 00:45:05;;;;;;;;;;;11.50;99.90;;;;;;5112793;28;19928;-67
2023/03/30 00:47:31;;;;;;;;;;;11.50;99.90;;;;;;5112293;28;19923;-65
2023/03/30 00:49:57;;;;;;;;;;;11.50;99.90;;;;;;5094703;28;19931;-65
2023/03/30 00:52:23;;;;;;;;;;;11.50;99.90;;;;;;5111318;28;19946;-66
2023/03/30 00:54:55;;;;;;;;;;;11.50;99.90;;;;;;5112152;28;20049;-66
2023/03/30 00:57:21;;;;;;;;;;;11.60;99.90;;;;;;5094531;28;20311;-67
2023/03/30 00:59:48;;;;;;;;;;;11.60;99.90;;;;;;5112539;28;19931;-66
2023/03/30 01:02:14;;;;;;;;;;;11.60;99.90;;;;;;5112119;28;19923;-66
2023/03/30 01:04:40;;;;;;;;;;;11.60;99.90;;;;;;5094084;28;20015;-66
2023/03/30 01:07:06;;;;;;;;;;;11.60;99.90;;;;;;5112568;28;19924;-66
2023/03/30 01:09:32;;;;;;;;;;;11.60;99.90;;;;;;5092450;28;20381;-63
2023/03/30 01:11:57;;;;;;;;;;;11.60;99.90;;;;;;5111764;28;19978;-62
2023/03/30 01:14:23;;;;;;;;;;;11.70;99.90;;;;;;5093497;28;20296;-65
2023/03/30 01:16:54;;;;;;;;;;;11.70;99.90;;;;;;5112159;28;19924;-63
2023/03/30 01:19:39;;;;;;;;;;;11.70;99.90;;;;;;5111915;28;20319;-63
2023/03/30 01:22:23;;;;;;;;;;;11.70;99.90;;;;;;5112283;28;20264;-62
2023/03/30 01:25:08;;;;;;;;;;;11.70;99.90;;;;;;5093844;28;20018;-63
2023/03/30 01:27:52;;;;;;;;;;;11.70;99.90;;;;;;5111674;28;20022;-63
2023/03/30 01:30:37;;;;;;;;;;;11.70;99.90;;;;;;5111995;28;20026;-63
2023/03/30 01:33:12;;;;;;;;;;;11.70;99.90;;;;;;5112081;28;19923;-62
2023/03/30 01:35:44;;;;;;;;;;;11.70;99.90;;;;;;5111627;28;19924;-63
2023/03/30 01:38:28;;;;;;;;;;;11.80;99.90;;;;;;5112313;28;19924;-63
2023/03/30 01:41:12;;;;;;;;;;;11.70;99.90;;;;;;5112072;28;19996;-62
2023/03/30 01:44:00;;;;;;;;;;;11.70;99.90;;;;;;5111591;28;20019;-63
2023/03/30 01:46:36;;;;;;;;;;;11.80;99.90;;;;;;5111994;28;19927;-65
2023/03/30 01:49:05;;;;;;;;;;;11.80;99.90;;;;;;5111874;28;19928;-62
2023/03/30 01:51:39;;;;;;;;;;;11.80;99.90;;;;;;5093304;28;19924;-62
2023/03/30 01:54:17;;;;;;;;;;;11.80;99.90;;;;;;5111453;28;19931;-63
2023/03/30 01:56:46;;;;;;;;;;;11.80;99.90;;;;;;5111666;28;20023;-63
2023/03/30 01:59:32;;;;;;;;;;;11.80;99.90;;;;;;5111658;28;19981;-63
2023/03/30 02:02:02;;;;;;;;;;;11.70;99.90;;;;;;5111333;28;20014;-62
2023/03/30 02:04:30;;;;;;;;;;;11.70;99.90;;;;;;5112938;28;19977;-64
2023/03/30 02:07:05;;;;;;;;;;;11.70;99.90;;;;;;5115530;28;20159;-62
2023/03/30 02:09:32;;;;;;;;;;;11.60;99.90;;;;;;5096945;28;20011;-66
2023/03/30 02:11:59;;;;;;;;;;;11.70;99.90;;;;;;5115263;28;19924;-64
2023/03/30 02:14:26;;;;;;;;;;;11.60;99.90;;;;;;5115521;28;19930;-64
2023/03/30 02:16:54;;;;;;;;;;;11.60;99.90;;;;;;5115169;28;20106;-63
2023/03/30 02:19:20;;;;;;;;;;;11.60;99.90;;;;;;5115265;28;19923;-63
2023/03/30 02:21:46;;;;;;;;;;;11.60;99.90;;;;;;5114898;28;19930;-63
2023/03/30 02:24:16;;;;;;;;;;;11.60;99.90;;;;;;5080465;28;20018;-63
2023/03/30 02:26:46;;;;;;;;;;;11.60;99.90;;;;;;5114939;28;19928;-62
2023/03/30 02:29:12;;;;;;;;;;;11.60;99.90;;;;;;5115138;28;20373;-63
2023/03/30 02:31:38;;;;;;;;;;;11.60;99.90;;;;;;5114558;28;19924;-63
2023/03/30 02:34:08;;;;;;;;;;;11.60;99.90;;;;;;5115028;28;20019;-63
2023/03/30 02:37:02;;;;;;;;;;;11.60;99.90;;;;;;5096851;28;19930;-66
2023/03/30 02:39:33;;;;;;;;;;;11.60;99.90;;;;;;5115071;28;19934;-62
2023/03/30 02:42:17;;;;;;;;;;;11.60;99.90;;;;;;5114458;28;20065;-63
2023/03/30 02:44:47;;;;;;;;;;;11.60;99.90;;;;;;5114201;28;19999;-64
2023/03/30 02:47:12;;;;;;;;;;;11.60;99.90;;;;;;5114241;28;20385;-62
2023/03/30 02:49:47;;;;;;;;;;;11.60;99.90;;;;;;5114008;28;19939;-64
2023/03/30 02:52:12;;;;;;;;;;;11.60;99.90;;;;;;5114412;28;19924;-63
2023/03/30 02:54:47;;;;;;;;;;;11.60;99.90;;;;;;5113916;28;20004;-63
2023/03/30 02:57:13;;;;;;;;;;;11.60;99.90;;;;;;5114548;28;19924;-63
2023/03/30 02:59:57;;;;;;;;;;;11.70;99.90;;;;;;5114065;28;20372;-66
2023/03/30 03:02:27;;;;;;;;;;;11.70;99.90;;;;;;5114412;28;19924;-64
2023/03/30 03:04:53;;;;;;;;;;;11.70;99.90;;;;;;5114057;28;19946;-64
2023/03/30 03:07:19;;;;;;;;;;;11.80;99.90;;;;;;5114258;28;19935;-63
2023/03/30 03:09:45;;;;;;;;;;;11.70;99.90;;;;;;5113847;28;19924;-63
2023/03/30 03:12:11;;;;;;;;;;;11.80;99.90;;;;;;5113948;28;19951;-63
2023/03/30 03:14:37;;;;;;;;;;;11.80;99.90;;;;;;5096314;28;19973;-62
2023/03/30 03:17:03;;;;;;;;;;;11.80;99.90;;;;;;5094804;28;20280;-63
2023/03/30 03:19:29;;;;;;;;;;;11.90;99.90;;;;;;5114281;28;19923;-63
2023/03/30 03:21:55;;;;;;;;;;;11.90;99.90;;;;;;5113473;28;20035;-63
2023/03/30 03:24:20;;;;;;;;;;;11.90;99.90;;;;;;5114082;28;19924;-63
2023/03/30 03:26:46;;;;;;;;;;;12.00;99.90;;;;;;5113522;28;19931;-63
2023/03/30 03:29:11;;;;;;;;;;;11.90;99.90;;;;;;5095920;28;19928;-63
2023/03/30 03:31:37;;;;;;;;;;;12.00;99.90;;;;;;5114142;28;20368;-63
2023/03/30 03:34:03;;;;;;;;;;;12.00;99.90;;;;;;5113313;28;19924;-62
2023/03/30 03:36:29;;;;;;;;;;;12.00;99.90;;;;;;5113755;28;19931;-63
2023/03/30 03:38:55;;;;;;;;;;;11.90;99.90;;;;;;5113278;28;19924;-63
2023/03/30 03:41:21;;;;;;;;;;;11.90;99.90;;;;;;5113626;28;19930;-62
2023/03/30 03:43:46;;;;;;;;;;;11.90;99.90;;;;;;5113165;28;20284;-63
2023/03/30 03:46:12;;;;;;;;;;;11.80;99.90;;;;;;5113509;28;19923;-64
2023/03/30 03:48:38;;;;;;;;;;;11.80;99.90;;;;;;5095312;28;20402;-63
2023/03/30 03:51:04;;;;;;;;;;;11.80;99.90;;;;;;5113512;28;19920;-63
2023/03/30 03:53:30;;;;;;;;;;;11.80;99.90;;;;;;5113540;28;19975;-63
2023/03/30 03:55:56;;;;;;;;;;;11.80;99.90;;;;;;5113090;28;19923;-63
2023/03/30 03:58:22;;;;;;;;;;;11.80;99.90;;;;;;5112933;28;20000;-63
2023/03/30 04:00:47;;;;;;;;;;;11.90;99.90;;;;;;5112684;28;19989;-64
2023/03/30 04:03:13;;;;;;;;;;;11.90;99.90;;;;;;5113197;28;19931;-63
2023/03/30 04:05:38;;;;;;;;;;;11.90;99.90;;;;;;5094438;28;19924;-63
2023/03/30 04:08:04;;;;;;;;;;;11.90;99.90;;;;;;5094718;28;19931;-64
2023/03/30 04:10:30;;;;;;;;;;;11.90;99.90;;;;;;5095105;28;19968;-62
2023/03/30 04:12:56;;;;;;;;;;;11.90;99.90;;;;;;5112919;28;20224;-61
2023/03/30 04:15:23;;;;;;;;;;;11.80;99.90;;;;;;5112924;28;19980;-62
2023/03/30 04:17:56;;;;;;;;;;;11.90;99.90;;;;;;5094712;28;20024;-65
2023/03/30 04:20:23;;;;;;;;;;;11.80;99.90;;;;;;5113025;28;19928;-62
2023/03/30 04:22:49;;;;;;;;;;;11.90;99.90;;;;;;5112724;28;19923;-64
2023/03/30 04:25:14;;;;;;;;;;;11.90;99.90;;;;;;5112792;28;20380;-62
2023/03/30 04:27:41;;;;;;;;;;;11.90;99.90;;;;;;5112561;28;20018;-62
2023/03/30 04:30:08;;;;;;;;;;;11.90;99.90;;;;;;5112374;28;19924;-63
2023/03/30 04:32:33;;;;;;;;;;;11.90;99.90;;;;;;5094308;28;20357;-63
2023/03/30 04:35:02;;;;;;;;;;;11.90;99.90;;;;;;5112353;28;19927;-63
2023/03/30 04:37:31;;;;;;;;;;;11.90;99.90;;;;;;5112526;28;19923;-62
2023/03/30 04:39:57;;;;;;;;;;;11.90;99.90;;;;;;5093615;28;19923;-62
2023/03/30 04:42:29;;;;;;;;;;;11.80;99.90;;;;;;5112798;28;19923;-62
2023/03/30 04:44:58;;;;;;;;;;;11.80;99.90;;;;;;5112226;28;20322;-61
2023/03/30 04:47:24;;;;;;;;;;;11.90;99.90;;;;;;5112336;28;19936;-62
2023/03/30 04:49:50;;;;;;;;;;;11.90;99.90;;;;;;5112161;28;20438;-62
2023/03/30 04:52:16;;;;;;;;;;;11.90;99.90;;;;;;5111559;28;19924;-62
2023/03/30 04:54:42;;;;;;;;;;;11.90;99.90;;;;;;5112421;28;19928;-63
2023/03/30 04:57:07;;;;;;;;;;;11.90;99.90;;;;;;5093478;28;19949;-62
2023/03/30 04:59:33;;;;;;;;;;;11.90;99.90;;;;;;5112296;28;19924;-62
2023/03/30 05:01:58;;;;;;;;;;;11.90;99.90;;;;;;5111992;28;19932;-62
2023/03/30 05:04:24;;;;;;;;;;;12.00;99.90;;;;;;5112347;28;20269;-62
2023/03/30 05:06:50;;;;;;;;;;;11.90;99.90;;;;;;5112385;28;20010;-62
2023/03/30 05:09:15;;;;;;;;;;;12.00;99.90;;;;;;5093608;28;20471;-62
2023/03/30 05:11:41;;;;;;;;;;;12.00;99.90;;;;;;5111996;28;19938;-62
2023/03/30 05:14:07;;;;;;;;;;;12.00;99.90;;;;;;5111748;28;19928;-62
2023/03/30 05:16:32;;;;;;;;;;;12.00;99.90;;;;;;5112377;28;19923;-64
2023/03/30 05:18:58;;;;;;;;;;;12.00;99.90;;;;;;5111442;28;19943;-63
2023/03/30 05:21:23;;;;;;;;;;;12.00;99.90;;;;;;5112097;28;19923;-63
2023/03/30 05:23:49;;;;;;;;;;;12.10;99.90;;;;;;5112136;28;20330;-63
2023/03/30 05:26:14;;;;;;;;;;;12.10;99.90;;;;;;5111544;28;19931;-63
2023/03/30 05:28:41;;;;;;;;;;;12.10;99.90;;;;;;5111827;28;19927;-62
2023/03/30 05:31:07;;;;;;;;;;;12.10;99.90;;;;;;5111597;28;20015;-62
2023/03/30 05:33:33;;;;;;;;;;;12.10;99.90;;;;;;5111957;28;20019;-63
2023/03/30 05:35:59;;;;;;;;;;;12.10;99.90;;;;;;5111781;28;19928;-65
2023/03/30 05:38:25;;;;;;;;;;;12.10;99.90;;;;;;5111955;28;19930;-62
2023/03/30 05:40:52;;;;;;;;;;;12.10;99.90;;;;;;5115306;28;20018;-63
2023/03/30 05:43:17;;;;;;;;;;;12.10;99.90;;;;;;5115321;28;19924;-62
2023/03/30 05:45:43;;;;;;;;;;;12.10;99.90;;;;;;5115646;28;19946;-62
2023/03/30 05:48:08;;;;;;;;;;;12.20;99.90;;;;;;5115316;28;19931;-63
2023/03/30 05:50:34;;;;;;;;;;;12.10;99.90;;;;;;5115077;28;19935;-62
2023/03/30 05:53:00;;;;;;;;;;;12.10;99.90;;;;;;5115355;28;19923;-65
2023/03/30 05:55:26;;;;;;;;;;;12.10;99.90;;;;;;5115472;28;20377;-62
2023/03/30 05:57:52;;;;;;;;;;;12.00;99.90;;;;;;5115237;28;19928;-63
2023/03/30 06:00:20;;;;;;;;;;;12.10;99.90;;;;;;5114973;28;19930;-63
2023/03/30 06:02:45;;;;;;;;;;;12.10;99.90;;;;;;5097287;28;20438;-64
2023/03/30 06:05:11;;;;;;;;;;;12.10;99.90;;;;;;5115210;28;19941;-63
2023/03/30 06:07:37;;;;;;;;;;;12.10;99.90;;;;;;5115134;28;20437;-63
2023/03/30 06:10:04;;;;;;;;;;;12.10;99.90;;;;;;5115024;28;19924;-67
2023/03/30 06:12:31;;;;;;;;;;;12.10;99.90;;;;;;5114460;28;20389;-63
2023/03/30 06:14:56;;;;;;;;;;;12.10;99.90;;;;;;5097052;28;20258;-63
2023/03/30 06:17:22;;;;;;;;;;;12.10;99.90;;;;;;5114786;28;19992;-62
2023/03/30 06:19:47;;;;;;;;;;;12.20;99.90;;;;;;5115176;28;19931;-63
2023/03/30 06:22:13;;;;;;;;;;;12.20;99.90;;;;;;5114322;28;19923;-63
2023/03/30 06:24:39;;;;;;;;;;;12.20;99.90;;;;;;5115006;28;19931;-63
2023/03/30 06:27:04;;;;;;;;;;;12.20;99.90;;;;;;5115022;28;19961;-66
2023/03/30 06:29:30;;;;;;;;;;;12.20;99.90;;;;;;5114656;28;20364;-63
2023/03/30 06:31:55;;;;;;;;;;;12.20;99.90;;;;;;5114735;28;20308;-64
2023/03/30 06:34:21;;;;;;;;;;;12.20;99.90;;;;;;5096526;28;19928;-62
2023/03/30 06:36:47;;;;;;;;;;;12.30;99.90;;;;;;5114808;28;19924;-63
2023/03/30 06:39:13;;;;;;;;;;;12.20;99.90;;;;;;5114232;28;20326;-62
2023/03/30 06:41:38;;;;;;;;;;;12.30;99.90;;;;;;5114602;28;19923;-63
2023/03/30 06:44:05;;;;;;;;;;;12.30;99.90;;;;;;5114448;28;20266;-63
2023/03/30 06:46:32;;;;;;;;;;;12.30;99.90;;;;;;5109581;28;20068;-65
2023/03/30 06:48:57;;;;;;;;;;;12.30;99.90;;;;;;5112519;28;20021;-62
2023/03/30 06:51:23;;;;;;;;;;;12.30;99.90;;;;;;5111711;28;20433;-63
2023/03/30 06:53:49;;;;;;;;;;;12.30;99.90;;;;;;5114639;28;19931;-62
2023/03/30 06:56:15;;;;;;;;;;;12.30;99.90;;;;;;5113410;28;19928;-62
2023/03/30 06:58:40;;;;;;;;;;;12.30;99.90;;;;;;5096354;28;20365;-63
2023/03/30 07:01:14;;;;;;;;;;;12.30;99.90;;;;;;5114105;28;20285;-62
2023/03/30 07:03:40;;;;;;;;;;;12.40;99.90;;;;;;5112320;28;20451;-63
2023/03/30 07:06:06;;;;;;;;;;;12.40;99.90;;;;;;5114396;28;20015;-63
2023/03/30 07:08:33;;;;;;;;;;;12.40;99.90;;;;;;5113618;28;19983;-62
2023/03/30 07:10:58;;;;;;;;;;;12.40;99.90;;;;;;5114057;28;20328;-63
2023/03/30 07:13:24;;;;;;;;;;;12.40;99.90;;;;;;5113545;28;19928;-62
2023/03/30 07:15:51;;;;;;;;;;;12.40;99.90;;;;;;5114018;28;19975;-63
2023/03/30 07:18:17;;;;;;;;;;;12.40;99.90;;;;;;5113527;28;20010;-64
2023/03/30 07:20:45;;;;;;;;;;;12.40;99.90;;;;;;5113903;28;20012;-63
2023/03/30 07:23:11;;;;;;;;;;;12.50;99.90;;;;;;5114048;28;19950;-63
2023/03/30 07:25:37;;;;;;;;;;;12.50;99.90;;;;;;5113634;28;19924;-63
2023/03/30 07:28:05;;;;;;;;;;;12.50;99.90;;;;;;5095644;28;20007;-62
2023/03/30 07:30:31;;;;;;;;;;;12.60;99.90;;;;;;5113404;28;19923;-65
2023/03/30 07:32:57;;;;;;;;;;;12.60;99.90;;;;;;5095617;28;19973;-64
2023/03/30 07:35:23;;;;;;;;;;;12.60;99.90;;;;;;5113419;28;20369;-64
2023/03/30 07:37:48;;;;;;;;;;;12.60;99.90;;;;;;5113683;28;19974;-65
2023/03/30 07:40:14;;;;;;;;;;;12.60;99.90;;;;;;5113510;28;19931;-63
2023/03/30 07:42:40;;;;;;;;;;;12.50;99.90;;;;;;5095125;28;19930;-64
2023/03/30 07:45:06;;;;;;;;;;;12.50;99.90;;;;;;5095400;28;20395;-64
2023/03/30 07:47:31;;;;;;;;;;;12.50;99.90;;;;;;5095289;28;20289;-65
2023/03/30 07:49:57;;;;;;;;;;;12.50;99.90;;;;;;5113280;28;20053;-65
2023/03/30 07:52:22;;;;;;;;;;;12.50;99.90;;;;;;5112970;28;19931;-65
2023/03/30 07:54:48;;;;;;;;;;;12.40;99.90;;;;;;5112972;28;20018;-65
2023/03/30 07:57:14;;;;;;;;;;;12.30;99.90;;;;;;5113341;28;19923;-63
2023/03/30 07:59:39;;;;;;;;;;;12.40;99.90;;;;;;5112568;28;20000;-67
2023/03/30 08:02:05;;;;;;;;;;;12.30;99.90;;;;;;5094509;28;19931;-65
2023/03/30 08:04:31;;;;;;;;;;;12.30;99.90;;;;;;5112724;28;19924;-64
2023/03/30 08:06:56;;;;;;;;;;;12.20;99.90;;;;;;5095201;28;19946;-63
2023/03/30 08:09:22;;;;;;;;;;;12.20;99.90;;;;;;5112511;28;19923;-64
2023/03/30 08:11:48;;;;;;;;;;;12.10;99.90;;;;;;5112655;28;20018;-63
2023/03/30 08:14:14;;;;;;;;;;;12.10;99.90;;;;;;5112976;28;20326;-64
2023/03/30 08:16:40;;;;;;;;;;;12.10;99.90;;;;;;5112482;28;19923;-65
2023/03/30 08:19:06;;;;;;;;;;;12.00;99.90;;;;;;5112728;28;19930;-63
2023/03/30 08:21:31;;;;;;;;;;;12.00;99.90;;;;;;5112057;28;20303;-63
2023/03/30 08:23:58;;;;;;;;;;;11.90;99.90;;;;;;5112417;28;19923;-63
2023/03/30 08:26:25;;;;;;;;;;;11.90;99.90;;;;;;5112161;28;19924;-66
2023/03/30 08:28:50;;;;;;;;;;;11.90;99.90;;;;;;5112267;28;19923;-63
2023/03/30 08:31:17;;;;;;;;;;;12.00;99.90;;;;;;5112301;28;19923;-63
2023/03/30 08:33:46;;;;;;;;;;;12.00;99.90;;;;;;5112148;28;19923;-63
2023/03/30 08:36:11;;;;;;;;;;;12.00;99.90;;;;;;5112434;28;20072;-64
2023/03/30 08:38:38;;;;;;;;;;;12.00;99.90;;;;;;5092155;28;19994;-64
2023/03/30 08:41:18;;;;;;;;;;;11.90;99.90;;;;;;5091653;28;19923;-62
2023/03/30 08:44:10;;;;;;;;;;;11.90;99.90;;;;;;5092720;28;20010;-64
2023/03/30 08:46:37;;;;;;;;;;;11.80;99.90;;;;;;5069280;28;20548;-65
2023/03/30 08:49:08;;;;;;;;;;;11.80;99.90;;;;;;5111623;28;20308;-65
2023/03/30 08:51:34;;;;;;;;;;;11.80;99.90;;;;;;5093523;28;19992;-64
2023/03/30 08:54:02;;;;;;;;;;;11.80;99.90;;;;;;5111603;28;20453;-65
2023/03/30 08:56:43;;;;;;;;;;;11.80;99.90;;;;;;5111639;28;20363;-67
2023/03/30 08:59:09;;;;;;;;;;;11.70;99.90;;;;;;5111643;28;19930;-66
2023/03/30 09:01:34;;;;;;;;;;;11.80;99.90;;;;;;5093055;28;20418;-64
2023/03/30 09:04:09;;;;;;;;;;;11.70;99.90;;;;;;5111764;28;19931;-64
2023/03/30 09:06:52;;;;;;;;;;;11.70;99.90;;;;;;5111326;28;20269;-65
2023/03/30 09:09:20;;;;;;;;;;;11.80;99.90;;;;;;5112214;28;19930;-63
2023/03/30 09:11:48;;;;;;;;;;;11.90;99.90;;;;;;5092944;28;20323;-64
2023/03/30 09:14:32;;;;;;;;;;;11.90;99.90;;;;;;5112603;28;19931;-65
2023/03/30 09:17:03;;;;;;;;;;;12.10;99.90;;;;;;5098321;28;19924;-64
2023/03/30 09:19:34;;;;;;;;;;;12.20;99.90;;;;;;5081228;28;19939;-67
2023/03/30 09:22:01;;;;;;;;;;;12.40;99.90;;;;;;5115990;28;20315;-64
2023/03/30 09:24:28;;;;;;;;;;;12.60;99.90;;;;;;5115836;28;19923;-65
2023/03/30 09:26:58;;;;;;;;;;;12.70;99.90;;;;;;5115579;28;19923;-63
2023/03/30 09:29:43;;;;;;;;;;;12.70;99.90;;;;;;5115451;28;20387;-63
2023/03/30 09:32:09;;;;;;;;;;;12.70;99.90;;;;;;5097571;28;19973;-63
2023/03/30 09:34:34;;;;;;;;;;;12.80;99.90;;;;;;5115270;28;19923;-64
2023/03/30 09:37:10;;;;;;;;;;;12.90;99.90;;;;;;5115953;28;20004;-63
2023/03/30 09:39:36;;;;;;;;;;;13.00;99.90;;;;;;5115438;28;19924;-63
2023/03/30 09:42:08;;;;;;;;;;;13.10;99.90;;;;;;5115778;28;19923;-64
2023/03/30 09:44:43;;;;;;;;;;;13.10;99.90;;;;;;5115341;28;19931;-65
2023/03/30 09:47:20;;;;;;;;;;;13.10;99.90;;;;;;5115947;28;19969;-64
2023/03/30 09:49:46;;;;;;;;;;;13.10;99.90;;;;;;5115257;28;19970;-63
2023/03/30 09:52:22;;;;;;;;;;;13.20;99.90;;;;;;5115602;28;20343;-63
2023/03/30 09:54:48;;;;;;;;;;;13.20;99.90;;;;;;5114880;28;19923;-63
2023/03/30 09:57:23;;;;;;;;;;;13.20;99.90;;;;;;5115562;28;19923;-63
2023/03/30 09:59:48;;;;;;;;;;;13.20;99.90;;;;;;5115233;28;20308;-63
2023/03/30 10:02:17;;;;;;;;;;;13.20;99.90;;;;;;5115664;28;19945;-64
2023/03/30 10:04:51;;;;;;;;;;;13.20;99.90;;;;;;5096758;28;19924;-64
2023/03/30 10:07:38;;;;;;;;;;;13.20;99.90;;;;;;5115351;28;19968;-62
2023/03/30 10:10:13;;;;;;;;;;;13.10;99.90;;;;;;5115336;28;19976;-62
2023/03/30 10:12:38;;;;;;;;;;;13.10;99.90;;;;;;5114918;28;20277;-61
2023/03/30 10:15:04;;;;;;;;;;;13.00;99.90;;;;;;5115206;28;19942;-62
2023/03/30 10:17:30;;;;;;;;;;;13.00;99.90;;;;;;5115219;28;19974;-63
2023/03/30 10:20:25;;;;;;;;;;;13.00;99.90;;;;;;5114850;28;19972;-63
2023/03/30 10:23:14;;;;;;;;;;;13.00;99.90;;;;;;5092385;28;19931;-62
2023/03/30 10:25:41;;;;;;;;;;;13.00;99.90;;;;;;5100841;28;20011;-63
2023/03/30 10:28:15;;;;;;;;;;;13.10;99.90;;;;;;5096756;28;19924;-63
2023/03/30 10:30:48;;;;;;;;;;;13.10;99.90;;;;;;5114883;28;19924;-63
2023/03/30 10:33:13;;;;;;;;;;;13.10;99.90;;;;;;5114685;28;19924;-64
2023/03/30 10:35:39;;;;;;;;;;;13.20;99.90;;;;;;5114344;28;19993;-65
2023/03/30 10:38:06;;;;;;;;;;;13.20;99.90;;;;;;5114877;28;20022;-63
2023/03/30 10:40:33;;;;;;;;;;;13.10;99.90;;;;;;5114862;28;19924;-63
2023/03/30 10:42:59;;;;;;;;;;;13.10;99.90;;;;;;5096308;28;19931;-62
2023/03/30 10:45:27;;;;;;;;;;;13.20;99.90;;;;;;5114611;28;20025;-63
2023/03/30 10:48:11;;;;;;;;;;;13.20;99.90;;;;;;5113579;28;19934;-63
2023/03/30 10:50:49;;;;;;;;;;;13.20;99.90;;;;;;5114482;28;20288;-63
2023/03/30 10:53:14;;;;;;;;;;;13.30;99.90;;;;;;5114399;28;19923;-63
2023/03/30 10:55:52;;;;;;;;;;;13.30;99.90;;;;;;5096607;28;19976;-65
2023/03/30 10:58:44;;;;;;;;;;;13.30;99.90;;;;;;5113887;28;20365;-62
2023/03/30 11:01:16;;;;;;;;;;;13.40;99.90;;;;;;5109340;28;19933;-63
2023/03/30 11:03:44;;;;;;;;;;;13.40;99.90;;;;;;5114395;28;20315;-65
2023/03/30 11:06:20;;;;;;;;;;;13.40;99.90;;;;;;5114601;28;19924;-64
2023/03/30 11:08:47;;;;;;;;;;;13.40;99.90;;;;;;5113992;28;19956;-63
2023/03/30 11:11:27;;;;;;;;;;;13.50;99.90;;;;;;5096446;28;19923;-63
2023/03/30 11:13:56;;;;;;;;;;;13.40;99.90;;;;;;5113441;28;19924;-62
2023/03/30 11:16:22;;;;;;;;;;;13.40;99.90;;;;;;5114139;28;20010;-62
2023/03/30 11:18:53;;;;;;;;;;;13.40;99.90;;;;;;5113211;28;20281;-62
2023/03/30 11:21:23;;;;;;;;;;;13.50;99.90;;;;;;5113939;28;19924;-63
2023/03/30 11:23:52;;;;;;;;;;;13.40;99.90;;;;;;5095535;28;20347;-62
2023/03/30 11:26:31;;;;;;;;;;;13.40;99.90;;;;;;5095733;28;19931;-62
2023/03/30 11:29:04;;;;;;;;;;;13.50;99.90;;;;;;5095154;28;19977;-63
2023/03/30 11:31:39;;;;;;;;;;;13.60;99.90;;;;;;5095974;28;20292;-63
2023/03/30 11:34:12;;;;;;;;;;;13.70;99.90;;;;;;5113300;28;19920;-63
2023/03/30 11:36:47;;;;;;;;;;;13.70;99.90;;;;;;5094638;28;19930;-62
2023/03/30 11:39:14;;;;;;;;;;;13.70;99.90;;;;;;5095423;28;19931;-61
2023/03/30 11:41:41;;;;;;;;;;;13.70;99.90;;;;;;5113787;28;19924;-61
2023/03/30 11:44:08;;;;;;;;;;;13.70;99.90;;;;;;5113518;28;19994;-62
2023/03/30 11:46:34;;;;;;;;;;;13.70;99.90;;;;;;5113545;28;19924;-64
2023/03/30 11:49:29;;;;;;;;;;;13.80;99.90;;;;;;5112656;28;19931;-62
2023/03/30 11:52:15;;;;;;;;;;;13.80;99.90;;;;;;5090742;28;20018;-63
2023/03/30 11:55:07;;;;;;;;;;;13.90;99.90;;;;;;5094192;28;20332;-61
2023/03/30 11:57:39;;;;;;;;;;;14.00;99.90;;;;;;5113443;28;19931;-62
2023/03/30 12:00:31;;;;;;;;;;;14.00;99.90;;;;;;5112876;28;19924;-63
2023/03/30 12:03:07;;;;;;;;;;;14.00;99.90;;;;;;5072577;28;20271;-64
2023/03/30 12:05:39;;;;;;;;;;;14.10;99.90;;;;;;5112961;28;19924;-63
2023/03/30 12:08:23;;;;;;;;;;;14.10;99.90;;;;;;5112917;28;19971;-62
2023/03/30 12:11:00;;;;;;;;;;;14.20;99.90;;;;;;5113028;28;19924;-66
2023/03/30 12:13:27;;;;;;;;;;;14.10;99.90;;;;;;5091425;28;19924;-63
2023/03/30 12:15:56;;;;;;;;;;;14.20;99.90;;;;;;5091607;28;20520;-63
2023/03/30 12:18:25;;;;;;;;;;;14.20;99.90;;;;;;5092959;28;19924;-62
2023/03/30 12:21:09;;;;;;;;;;;14.20;99.90;;;;;;5074799;28;19998;-66
2023/03/30 12:23:35;;;;;;;;;;;14.30;99.90;;;;;;5092849;28;19931;-63
2023/03/30 12:26:00;;;;;;;;;;;14.30;99.90;;;;;;5092330;28;19927;-62
2023/03/30 12:28:38;;;;;;;;;;;14.40;99.90;;;;;;5092410;28;19924;-62
2023/03/30 12:31:03;;;;;;;;;;;14.50;99.90;;;;;;5092112;28;19931;-62
2023/03/30 12:33:42;;;;;;;;;;;14.50;99.90;;;;;;5091193;28;20006;-63
2023/03/30 12:36:26;;;;;;;;;;;14.60;99.90;;;;;;5091375;28;19978;-63
2023/03/30 12:38:56;;;;;;;;;;;14.60;99.90;;;;;;5091899;28;20369;-63
2023/03/30 12:41:24;;;;;;;;;;;14.60;99.90;;;;;;5092371;28;19935;-62
2023/03/30 12:44:02;;;;;;;;;;;14.60;99.90;;;;;;5092276;28;19924;-63
2023/03/30 12:46:34;;;;;;;;;;;14.60;99.90;;;;;;5092562;28;19924;-63
2023/03/30 12:49:18;;;;;;;;;;;14.50;99.90;;;;;;5092210;28;19931;-63
2023/03/30 12:51:43;;;;;;;;;;;14.50;99.90;;;;;;5091135;28;19924;-61
2023/03/30 12:54:36;;;;;;;;;;;14.50;99.90;;;;;;5090691;28;19932;-62
2023/03/30 12:57:11;;;;;;;;;;;14.50;99.90;;;;;;5060390;28;20318;-62
2023/03/30 12:59:59;;;;;;;;;;;14.60;99.90;;;;;;5092184;28;19924;-62
2023/03/30 13:02:28;;;;;;;;;;;14.60;99.90;;;;;;5091685;28;19924;-63
2023/03/30 13:04:53;;;;;;;;;;;14.70;99.90;;;;;;5089854;28;19924;-62
2023/03/30 13:07:21;;;;;;;;;;;14.70;99.90;;;;;;5090976;28;19924;-62
2023/03/30 13:09:58;;;;;;;;;;;14.70;99.90;;;;;;5089302;28;20377;-63
2023/03/30 13:12:32;;;;;;;;;;;14.80;99.90;;;;;;5096091;28;19930;-63
2023/03/30 13:15:15;;;;;;;;;;;14.70;99.90;;;;;;5110428;28;19924;-64
2023/03/30 13:18:01;;;;;;;;;;;14.80;99.90;;;;;;5111380;28;20408;-62
2023/03/30 13:20:47;;;;;;;;;;;14.70;99.90;;;;;;5110753;28;19924;-61
2023/03/30 13:23:13;;;;;;;;;;;14.60;99.90;;;;;;5108843;28;19955;-62
2023/03/30 13:25:42;;;;;;;;;;;14.60;99.90;;;;;;5093328;28;20024;-62
2023/03/30 13:28:27;;;;;;;;;;;14.60;99.90;;;;;;5111257;28;19924;-62
2023/03/30 13:30:54;;;;;;;;;;;14.60;99.90;;;;;;5094196;28;20280;-63
2023/03/30 13:33:21;;;;;;;;;;;14.70;99.90;;;;;;5111748;28;19927;-64
2023/03/30 13:35:52;;;;;;;;;;;14.80;99.90;;;;;;5112176;28;20274;-61
2023/03/30 13:38:27;;;;;;;;;;;14.80;99.90;;;;;;5111751;28;19923;-63
2023/03/30 13:40:58;;;;;;;;;;;14.90;99.90;;;;;;5112254;28;19932;-63
2023/03/30 13:43:33;;;;;;;;;;;14.90;99.90;;;;;;5111579;28;19924;-63
2023/03/30 13:46:03;;;;;;;;;;;15.00;99.90;;;;;;5111883;28;19927;-63
2023/03/30 13:48:41;;;;;;;;;;;15.10;99.90;;;;;;5112115;28;19969;-61
2023/03/30 13:51:11;;;;;;;;;;;15.10;99.90;;;;;;5093630;28;19924;-63
2023/03/30 13:53:40;;;;;;;;;;;15.10;99.90;;;;;;5093475;28;20372;-63
2023/03/30 13:56:07;;;;;;;;;;;15.00;99.90;;;;;;5111639;28;19924;-62
2023/03/30 13:58:32;;;;;;;;;;;14.90;99.90;;;;;;5112153;28;19924;-63
2023/03/30 14:01:01;;;;;;;;;;;14.80;99.90;;;;;;5096179;28;19928;-63
2023/03/30 14:03:32;;;;;;;;;;;14.80;99.90;;;;;;5097564;28;19923;-63
2023/03/30 14:06:02;;;;;;;;;;;14.90;99.90;;;;;;5115857;28;19977;-62
2023/03/30 14:08:29;;;;;;;;;;;14.80;99.90;;;;;;5116049;28;20281;-62
2023/03/30 14:10:55;;;;;;;;;;;14.80;99.90;;;;;;5097613;28;19924;-64
2023/03/30 14:13:21;;;;;;;;;;;14.80;99.90;;;;;;5115538;28;19946;-63
2023/03/30 14:15:49;;;;;;;;;;;14.90;99.90;;;;;;5097992;28;19924;-63
2023/03/30 14:18:20;;;;;;;;;;;14.90;99.90;;;;;;5115432;28;19978;-63
2023/03/30 14:20:50;;;;;;;;;;;14.80;99.90;;;;;;5115830;28;19993;-63
2023/03/30 14:23:19;;;;;;;;;;;14.70;99.90;;;;;;5115283;28;19923;-62
2023/03/30 14:25:45;;;;;;;;;;;14.70;99.90;;;;;;5115716;28;19928;-63
2023/03/30 14:28:18;;;;;;;;;;;14.70;99.90;;;;;;5080004;28;19924;-63
2023/03/30 14:30:48;;;;;;;;;;;14.70;99.90;;;;;;5115318;28;20027;-62